createdAt,value
2023-05-16T00:00:48.561Z,15
2023-05-16T00:02:36.517Z,15
2023-05-16T00:03:43.333Z,18
2023-05-16T00:04:49.998Z,17
2023-05-16T00:05:56.824Z,15
2023-05-16T00:07:03.554Z,13
2023-05-16T00:08:10.391Z,13
2023-05-16T00:09:17.112Z,12
2023-05-16T00:10:24.050Z,10
2023-05-16T00:11:30.833Z,9
2023-05-16T00:12:37.618Z,7
2023-05-16T00:13:44.379Z,7
2023-05-16T00:14:51.127Z,7
2023-05-16T00:15:57.895Z,8
2023-05-16T00:17:04.974Z,7
2023-05-16T00:18:11.527Z,7
2023-05-16T00:19:18.293Z,6
2023-05-16T00:20:25.243Z,7
2023-05-16T00:21:31.796Z,6
2023-05-16T00:22:38.659Z,7
2023-05-16T00:23:54.239Z,6
2023-05-16T00:25:00.979Z,8
2023-05-16T00:26:14.916Z,8
2023-05-16T00:27:21.722Z,10
2023-05-16T00:28:28.576Z,10
2023-05-16T00:29:48.102Z,12
2023-05-16T00:30:54.850Z,12
2023-05-16T00:32:01.674Z,11
2023-05-16T00:33:08.727Z,11
2023-05-16T00:34:15.343Z,10
2023-05-16T00:35:22.141Z,10
2023-05-16T00:36:29.064Z,9
2023-05-16T00:37:35.843Z,9
2023-05-16T00:38:42.649Z,8
2023-05-16T00:39:49.478Z,10
2023-05-16T00:40:56.220Z,8
2023-05-16T00:42:03.039Z,9
2023-05-16T00:43:09.860Z,7
2023-05-16T00:44:16.608Z,7
2023-05-16T00:45:23.344Z,8
2023-05-16T00:46:30.371Z,8
2023-05-16T00:47:37.189Z,8
2023-05-16T00:48:43.885Z,7
2023-05-16T00:49:50.793Z,7
2023-05-16T00:50:57.477Z,8
2023-05-16T00:52:04.346Z,10
2023-05-16T00:53:11.220Z,7
2023-05-16T00:54:17.947Z,9
2023-05-16T00:55:24.737Z,10
2023-05-16T00:56:31.485Z,8
2023-05-16T00:57:38.426Z,8
2023-05-16T00:58:45.213Z,9
2023-05-16T00:59:51.929Z,8
2023-05-16T01:00:58.755Z,8
2023-05-16T01:02:05.548Z,9
2023-05-16T01:03:12.509Z,6
2023-05-16T01:04:19.322Z,8
2023-05-16T01:05:26.338Z,7
2023-05-16T01:06:32.995Z,7
2023-05-16T01:07:39.962Z,7
2023-05-16T01:08:46.941Z,7
2023-05-16T01:09:53.716Z,7
2023-05-16T01:11:00.656Z,8
2023-05-16T01:12:33.251Z,7
2023-05-16T01:13:50.218Z,7
2023-05-16T01:15:07.114Z,7
2023-05-16T01:16:17.000Z,6
2023-05-16T01:17:23.921Z,7
2023-05-16T01:18:40.870Z,6
2023-05-16T01:19:57.944Z,6
2023-05-16T01:21:09.831Z,8
2023-05-16T01:22:19.347Z,9
2023-05-16T01:23:33.994Z,8
2023-05-16T01:24:43.302Z,7
2023-05-16T01:26:00.285Z,7
2023-05-16T01:27:17.283Z,6
2023-05-16T01:28:24.060Z,7
2023-05-16T01:29:30.954Z,7
2023-05-16T01:30:37.866Z,7
2023-05-16T01:31:44.725Z,6
2023-05-16T01:32:51.690Z,6
2023-05-16T01:33:58.494Z,8
2023-05-16T01:35:05.353Z,8
2023-05-16T01:36:12.120Z,7
2023-05-16T01:37:24.110Z,7
2023-05-16T01:38:36.104Z,6
2023-05-16T01:39:47.982Z,7
2023-05-16T01:40:57.682Z,7
2023-05-16T01:42:07.437Z,7
2023-05-16T01:43:17.001Z,7
2023-05-16T01:44:26.308Z,7
2023-05-16T01:45:38.185Z,7
2023-05-16T01:46:45.190Z,7
2023-05-16T01:47:52.106Z,8
2023-05-16T01:48:58.893Z,7
2023-05-16T01:50:15.825Z,8
2023-05-16T01:51:22.637Z,6
2023-05-16T01:52:29.443Z,9
2023-05-16T01:53:46.330Z,8
2023-05-16T01:54:53.221Z,8
2023-05-16T01:56:18.320Z,8
2023-05-16T01:57:25.164Z,6
2023-05-16T01:58:32.080Z,6
2023-05-16T01:59:38.851Z,7
2023-05-16T02:00:45.663Z,8
2023-05-16T02:01:52.453Z,11
2023-05-16T02:03:02.380Z,9
2023-05-16T02:04:09.176Z,8
2023-05-16T02:05:15.906Z,10
2023-05-16T02:06:22.708Z,10
2023-05-16T02:07:29.474Z,10
2023-05-16T02:08:36.336Z,10
2023-05-16T02:09:43.144Z,9
2023-05-16T02:10:49.905Z,11
2023-05-16T02:11:56.772Z,10
2023-05-16T02:13:03.654Z,9
2023-05-16T02:14:10.537Z,9
2023-05-16T02:15:17.246Z,9
2023-05-16T02:16:24.195Z,9
2023-05-16T02:17:31.049Z,9
2023-05-16T02:18:37.803Z,10
2023-05-16T02:19:44.712Z,10
2023-05-16T02:20:51.570Z,12
2023-05-16T02:21:58.372Z,12
2023-05-16T02:23:05.282Z,9
2023-05-16T02:24:12.095Z,10
2023-05-16T02:25:18.920Z,9
2023-05-16T02:26:25.734Z,8
2023-05-16T02:27:32.618Z,8
2023-05-16T02:28:39.448Z,9
2023-05-16T02:29:46.310Z,8
2023-05-16T02:30:53.125Z,7
2023-05-16T02:32:02.985Z,10
2023-05-16T02:33:09.916Z,9
2023-05-16T02:34:16.686Z,10
2023-05-16T02:35:23.436Z,8
2023-05-16T02:36:30.370Z,8
2023-05-16T02:37:37.191Z,7
2023-05-16T02:38:43.998Z,9
2023-05-16T02:39:50.896Z,7
2023-05-16T02:40:57.774Z,7
2023-05-16T02:42:04.717Z,7
2023-05-16T02:43:11.633Z,7
2023-05-16T02:44:18.546Z,9
2023-05-16T02:45:25.676Z,8
2023-05-16T02:46:32.390Z,8
2023-05-16T02:47:39.377Z,8
2023-05-16T02:48:46.234Z,9
2023-05-16T02:49:53.076Z,7
2023-05-16T02:50:59.952Z,9
2023-05-16T02:52:06.806Z,9
2023-05-16T02:53:13.677Z,9
2023-05-16T02:54:20.460Z,8
2023-05-16T02:55:27.336Z,9
2023-05-16T02:56:34.192Z,10
2023-05-16T02:57:41.095Z,9
2023-05-16T02:58:48.002Z,8
2023-05-16T02:59:54.833Z,10
2023-05-16T03:01:01.701Z,9
2023-05-16T03:02:08.706Z,7
2023-05-16T03:03:15.664Z,9
2023-05-16T03:04:22.552Z,8
2023-05-16T03:05:29.470Z,9
2023-05-16T03:06:36.169Z,8
2023-05-16T03:07:43.009Z,9
2023-05-16T03:08:49.843Z,9
2023-05-16T03:09:56.721Z,7
2023-05-16T03:11:03.633Z,7
2023-05-16T03:12:10.492Z,9
2023-05-16T03:13:17.333Z,9
2023-05-16T03:14:24.206Z,10
2023-05-16T03:15:33.562Z,10
2023-05-16T03:16:40.557Z,8
2023-05-16T03:17:47.381Z,9
2023-05-16T03:18:54.208Z,8
2023-05-16T03:20:01.003Z,7
2023-05-16T03:21:08.111Z,7
2023-05-16T03:22:14.996Z,9
2023-05-16T03:23:21.770Z,9
2023-05-16T03:24:28.527Z,9
2023-05-16T03:25:35.458Z,8
2023-05-16T03:26:42.236Z,9
2023-05-16T03:27:49.020Z,9
2023-05-16T03:28:55.763Z,8
2023-05-16T03:30:02.814Z,9
2023-05-16T03:31:10.071Z,10
2023-05-16T03:32:16.968Z,16
2023-05-16T03:33:23.762Z,9
2023-05-16T03:34:30.550Z,9
2023-05-16T03:35:37.460Z,7
2023-05-16T03:36:44.480Z,8
2023-05-16T03:37:54.452Z,9
2023-05-16T03:39:01.238Z,10
2023-05-16T03:40:08.065Z,10
2023-05-16T03:41:14.983Z,7
2023-05-16T03:42:21.870Z,9
2023-05-16T03:43:28.737Z,8
2023-05-16T03:44:35.590Z,8
2023-05-16T03:45:42.462Z,8
2023-05-16T03:46:49.364Z,8
2023-05-16T03:47:56.243Z,7
2023-05-16T03:49:03.003Z,10
2023-05-16T03:50:09.808Z,8
2023-05-16T03:51:16.633Z,8
2023-05-16T03:52:23.391Z,7
2023-05-16T03:53:30.229Z,10
2023-05-16T03:54:37.120Z,10
2023-05-16T03:55:43.925Z,8
2023-05-16T03:56:50.788Z,9
2023-05-16T03:57:57.690Z,8
2023-05-16T03:59:04.728Z,9
2023-05-16T04:00:11.533Z,7
2023-05-16T04:01:18.560Z,8
2023-05-16T04:02:25.457Z,8
2023-05-16T04:03:32.370Z,7
2023-05-16T04:04:39.097Z,8
2023-05-16T04:05:45.973Z,7
2023-05-16T04:06:52.817Z,7
2023-05-16T04:07:59.620Z,7
2023-05-16T04:09:06.604Z,8
2023-05-16T04:10:13.378Z,6
2023-05-16T04:11:20.213Z,7
2023-05-16T04:12:27.097Z,6
2023-05-16T04:13:33.927Z,9
2023-05-16T04:14:40.745Z,8
2023-05-16T04:15:47.593Z,9
2023-05-16T04:16:54.525Z,9
2023-05-16T04:18:01.658Z,11
2023-05-16T04:19:08.479Z,8
2023-05-16T04:20:15.211Z,8
2023-05-16T04:21:22.008Z,8
2023-05-16T04:22:28.892Z,8
2023-05-16T04:23:35.597Z,11
2023-05-16T04:24:42.437Z,10
2023-05-16T04:25:49.361Z,11
2023-05-16T04:26:56.219Z,10
2023-05-16T04:28:03.097Z,13
2023-05-16T04:29:09.931Z,10
2023-05-16T04:30:16.816Z,9
2023-05-16T04:31:23.697Z,8
2023-05-16T04:32:30.619Z,10
2023-05-16T04:33:37.392Z,12
2023-05-16T04:34:44.233Z,12
2023-05-16T04:35:51.027Z,7
2023-05-16T04:36:57.821Z,9
2023-05-16T04:38:04.703Z,9
2023-05-16T04:39:11.515Z,9
2023-05-16T04:40:18.284Z,10
2023-05-16T04:41:25.306Z,8
2023-05-16T04:42:32.130Z,8
2023-05-16T04:43:38.933Z,8
2023-05-16T04:44:45.682Z,7
2023-05-16T04:45:52.545Z,6
2023-05-16T04:46:59.367Z,6
2023-05-16T04:48:06.260Z,8
2023-05-16T04:49:12.977Z,7
2023-05-16T04:50:19.885Z,5
2023-05-16T04:51:26.739Z,8
2023-05-16T04:52:33.558Z,6
2023-05-16T04:53:40.441Z,6
2023-05-16T04:54:47.351Z,8
2023-05-16T04:55:54.126Z,7
2023-05-16T04:57:01.013Z,9
2023-05-16T04:58:08.071Z,7
2023-05-16T04:59:14.960Z,8
2023-05-16T05:00:21.774Z,10
2023-05-16T05:01:28.697Z,11
2023-05-16T05:02:35.642Z,6
2023-05-16T05:03:42.352Z,7
2023-05-16T05:04:49.201Z,6
2023-05-16T05:06:34.969Z,6
2023-05-16T05:07:42.834Z,7
2023-05-16T05:08:49.709Z,7
2023-05-16T05:09:56.575Z,8
2023-05-16T05:11:03.568Z,8
2023-05-16T05:12:10.502Z,9
2023-05-16T05:13:17.552Z,10
2023-05-16T05:14:24.379Z,9
2023-05-16T05:15:31.127Z,8
2023-05-16T05:16:37.945Z,7
2023-05-16T05:17:44.966Z,10
2023-05-16T05:18:51.978Z,9
2023-05-16T05:19:59.540Z,9
2023-05-16T05:21:05.741Z,8
2023-05-16T05:22:12.624Z,9
2023-05-16T05:23:19.312Z,8
2023-05-16T05:24:26.133Z,9
2023-05-16T05:25:32.840Z,8
2023-05-16T05:26:39.696Z,9
2023-05-16T05:27:47.676Z,9
2023-05-16T05:29:04.354Z,11
2023-05-16T05:30:16.984Z,10
2023-05-16T05:31:23.964Z,11
2023-05-16T05:32:30.748Z,12
2023-05-16T05:33:37.588Z,13
2023-05-16T05:34:44.400Z,16
2023-05-16T05:35:51.225Z,11
2023-05-16T05:36:58.078Z,15
2023-05-16T05:38:04.925Z,12
2023-05-16T05:39:11.742Z,13
2023-05-16T05:40:18.480Z,13
2023-05-16T05:41:25.246Z,12
2023-05-16T05:42:32.033Z,12
2023-05-16T05:43:38.809Z,12
2023-05-16T05:44:45.537Z,14
2023-05-16T05:45:52.438Z,13
2023-05-16T05:47:27.094Z,13
2023-05-16T05:48:33.945Z,12
2023-05-16T05:49:40.728Z,13
2023-05-16T05:50:47.584Z,13
2023-05-16T05:51:54.409Z,12
2023-05-16T05:53:01.329Z,13
2023-05-16T05:54:08.247Z,12
2023-05-16T05:55:14.986Z,14
2023-05-16T05:56:21.747Z,12
2023-05-16T05:57:28.430Z,13
2023-05-16T05:58:35.294Z,12
2023-05-16T05:59:56.635Z,13
2023-05-16T06:01:08.445Z,14
2023-05-16T06:02:15.318Z,13
2023-05-16T06:03:22.947Z,12
2023-05-16T06:04:29.724Z,11
2023-05-16T06:05:36.568Z,11
2023-05-16T06:06:43.317Z,13
2023-05-16T06:07:50.060Z,12
2023-05-16T06:08:56.827Z,13
2023-05-16T06:10:04.878Z,12
2023-05-16T06:11:10.795Z,13
2023-05-16T06:12:17.612Z,12
2023-05-16T06:13:34.050Z,11
2023-05-16T06:14:40.980Z,13
2023-05-16T06:15:47.764Z,10
2023-05-16T06:16:54.642Z,10
2023-05-16T06:18:01.461Z,11
2023-05-16T06:19:08.374Z,10
2023-05-16T06:20:15.216Z,11
2023-05-16T06:21:22.048Z,10
2023-05-16T06:22:28.841Z,13
2023-05-16T06:23:35.611Z,12
2023-05-16T06:24:42.381Z,12
2023-05-16T06:26:23.147Z,12
2023-05-16T06:27:29.848Z,12
2023-05-16T06:28:36.618Z,10
2023-05-16T06:29:43.328Z,12
2023-05-16T06:30:50.120Z,11
2023-05-16T06:31:56.918Z,9
2023-05-16T06:33:03.797Z,10
2023-05-16T06:34:10.697Z,10
2023-05-16T06:35:17.609Z,10
2023-05-16T06:36:24.354Z,8
2023-05-16T06:37:31.168Z,8
2023-05-16T06:38:38.060Z,11
2023-05-16T06:39:44.975Z,10
2023-05-16T06:40:51.883Z,10
2023-05-16T06:41:58.705Z,11
2023-05-16T06:43:08.576Z,10
2023-05-16T06:44:15.386Z,12
2023-05-16T06:45:22.202Z,10
2023-05-16T06:46:27.214Z,10
2023-05-16T06:47:32.274Z,10
2023-05-16T06:48:37.344Z,10
2023-05-16T06:49:42.790Z,10
2023-05-16T06:50:47.879Z,10
2023-05-16T06:51:55.931Z,10
2023-05-16T06:53:01.459Z,10
2023-05-16T06:54:06.544Z,10
2023-05-16T06:55:11.612Z,10
2023-05-16T06:56:16.827Z,10
2023-05-16T06:57:21.896Z,10
2023-05-16T06:58:27.200Z,10
2023-05-16T06:59:32.467Z,10
2023-05-16T07:00:37.492Z,10
2023-05-16T07:01:42.743Z,10
2023-05-16T07:02:49.673Z,10
2023-05-16T07:03:54.718Z,10
2023-05-16T07:04:59.671Z,10
2023-05-16T07:06:04.924Z,10
2023-05-16T07:07:10.606Z,10
2023-05-16T07:08:15.585Z,10
2023-05-16T07:09:20.591Z,10
2023-05-16T07:10:25.536Z,10
2023-05-16T07:11:32.901Z,10
2023-05-16T07:12:38.019Z,10
2023-05-16T07:13:43.019Z,10
2023-05-16T07:14:48.093Z,10
2023-05-16T07:15:53.605Z,10
2023-05-16T07:16:58.561Z,10
2023-05-16T07:18:03.572Z,10
2023-05-16T07:19:08.638Z,10
2023-05-16T07:20:13.545Z,10
2023-05-16T07:21:32.209Z,10
2023-05-16T07:22:43.377Z,10
2023-05-16T07:23:48.390Z,10
2023-05-16T07:24:53.471Z,10
2023-05-16T07:25:58.496Z,10
2023-05-16T07:27:04.011Z,10
2023-05-16T07:28:09.033Z,10
2023-05-16T07:29:14.099Z,10
2023-05-16T07:30:19.096Z,10
2023-05-16T07:31:24.060Z,10
2023-05-16T07:32:29.498Z,10
2023-05-16T07:33:34.475Z,10
2023-05-16T07:34:39.447Z,10
2023-05-16T07:35:44.450Z,10
2023-05-16T07:36:49.459Z,10
2023-05-16T07:38:18.908Z,10
2023-05-16T07:39:25.725Z,8
2023-05-16T07:40:32.571Z,9
2023-05-16T07:41:39.477Z,7
2023-05-16T07:42:46.404Z,7
2023-05-16T07:43:53.116Z,8
2023-05-16T07:45:01.001Z,9
2023-05-16T07:46:08.146Z,8
2023-05-16T07:47:33.076Z,8
2023-05-16T07:48:39.791Z,7
2023-05-16T07:49:46.651Z,8
2023-05-16T07:50:55.079Z,7
2023-05-16T07:52:00.226Z,8
2023-05-16T07:53:07.144Z,9
2023-05-16T07:54:13.981Z,11
2023-05-16T07:55:20.879Z,6
2023-05-16T07:56:27.722Z,10
2023-05-16T07:57:45.348Z,7
2023-05-16T07:58:52.151Z,7
2023-05-16T08:01:11.188Z,8
2023-05-16T08:02:17.924Z,10
2023-05-16T08:03:24.939Z,7
2023-05-16T08:04:31.529Z,8
2023-05-16T08:05:38.366Z,7
2023-05-16T08:06:46.363Z,7
2023-05-16T08:10:03.454Z,8
2023-05-16T08:11:10.470Z,7
2023-05-16T08:12:17.269Z,8
2023-05-16T08:13:24.074Z,8
2023-05-16T08:14:30.938Z,7
2023-05-16T08:15:51.483Z,7
2023-05-16T08:16:58.310Z,8
2023-05-16T08:18:18.315Z,7
2023-05-16T08:19:25.287Z,6
2023-05-16T08:20:32.365Z,7
2023-05-16T08:21:39.187Z,6
2023-05-16T08:22:45.983Z,7
2023-05-16T08:23:52.761Z,7
2023-05-16T08:24:59.621Z,7
2023-05-16T08:26:06.542Z,6
2023-05-16T08:27:13.447Z,7
2023-05-16T08:28:20.259Z,10
2023-05-16T08:29:27.053Z,7
2023-05-16T08:30:33.901Z,8
2023-05-16T08:31:40.783Z,8
2023-05-16T08:32:47.803Z,8
2023-05-16T08:33:54.289Z,6
2023-05-16T08:35:01.246Z,7
2023-05-16T08:36:08.286Z,7
2023-05-16T08:37:17.168Z,7
2023-05-16T08:38:21.969Z,6
2023-05-16T08:39:28.778Z,5
2023-05-16T08:40:35.643Z,7
2023-05-16T08:41:53.305Z,7
2023-05-16T08:43:06.002Z,8
2023-05-16T08:44:12.721Z,8
2023-05-16T08:45:19.515Z,7
2023-05-16T08:46:26.352Z,6
2023-05-16T08:47:33.209Z,6
2023-05-16T08:48:39.974Z,10
2023-05-16T08:49:46.748Z,6
2023-05-16T08:50:53.572Z,6
2023-05-16T08:52:00.389Z,6
2023-05-16T08:53:09.336Z,8
2023-05-16T08:54:16.044Z,9
2023-05-16T08:55:22.845Z,7
2023-05-16T08:56:29.641Z,6
2023-05-16T08:57:36.519Z,6
2023-05-16T08:58:43.378Z,7
2023-05-16T08:59:50.150Z,7
2023-05-16T09:00:57.032Z,6
2023-05-16T09:02:04.781Z,11
2023-05-16T09:03:11.679Z,7
2023-05-16T09:04:18.506Z,8
2023-05-16T09:05:25.405Z,6
2023-05-16T09:06:32.163Z,7
2023-05-16T09:07:38.860Z,6
2023-05-16T09:08:51.554Z,9
2023-05-16T09:10:10.147Z,9
2023-05-16T09:11:16.956Z,7
2023-05-16T09:12:23.763Z,10
2023-05-16T09:13:30.582Z,7
2023-05-16T09:14:37.373Z,7
2023-05-16T09:15:44.335Z,7
2023-05-16T09:16:55.995Z,7
2023-05-16T09:18:05.680Z,5
2023-05-16T09:19:12.607Z,8
2023-05-16T09:20:19.738Z,7
2023-05-16T09:21:27.685Z,7
2023-05-16T09:22:34.398Z,6
2023-05-16T09:23:41.087Z,7
2023-05-16T09:24:47.942Z,7
2023-05-16T09:26:02.466Z,6
2023-05-16T09:27:09.179Z,6
2023-05-16T09:28:16.100Z,10
2023-05-16T09:29:22.968Z,9
2023-05-16T09:30:29.706Z,8
2023-05-16T09:31:36.418Z,7
2023-05-16T09:32:43.249Z,6
2023-05-16T09:33:51.185Z,8
2023-05-16T09:35:00.935Z,7
2023-05-16T09:36:08.063Z,6
2023-05-16T09:37:14.855Z,9
2023-05-16T09:38:21.753Z,6
2023-05-16T09:39:28.636Z,7
2023-05-16T09:40:35.472Z,7
2023-05-16T09:41:42.272Z,7
2023-05-16T09:42:49.057Z,8
2023-05-16T09:44:06.107Z,7
2023-05-16T09:45:12.863Z,7
2023-05-16T09:46:19.694Z,7
2023-05-16T09:47:26.535Z,6
2023-05-16T09:48:33.233Z,6
2023-05-16T09:49:40.201Z,7
2023-05-16T09:50:49.107Z,7
2023-05-16T09:51:55.921Z,9
2023-05-16T09:53:03.379Z,7
2023-05-16T09:54:24.835Z,7
2023-05-16T09:55:34.159Z,10
2023-05-16T09:56:40.824Z,8
2023-05-16T09:57:52.857Z,7
2023-05-16T09:59:00.675Z,6
2023-05-16T10:00:07.423Z,6
2023-05-16T10:01:14.366Z,7
2023-05-16T10:02:21.191Z,7
2023-05-16T10:03:27.938Z,6
2023-05-16T10:04:34.819Z,6
2023-05-16T10:05:41.664Z,7
2023-05-16T10:06:48.441Z,5
2023-05-16T10:07:55.286Z,7
2023-05-16T10:09:03.096Z,9
2023-05-16T10:10:08.915Z,6
2023-05-16T10:11:15.571Z,9
2023-05-16T10:12:22.295Z,8
2023-05-16T10:13:29.052Z,8
2023-05-16T10:14:53.231Z,8
2023-05-16T10:16:00.089Z,9
2023-05-16T10:17:09.730Z,6
2023-05-16T10:18:16.616Z,7
2023-05-16T10:19:23.447Z,7
2023-05-16T10:20:30.132Z,6
2023-05-16T10:21:36.868Z,6
2023-05-16T10:22:43.790Z,7
2023-05-16T10:23:50.657Z,9
2023-05-16T10:24:57.419Z,7
2023-05-16T10:26:04.141Z,7
2023-05-16T10:27:10.866Z,6
2023-05-16T10:28:17.707Z,7
2023-05-16T10:29:24.673Z,7
2023-05-16T10:30:31.433Z,8
2023-05-16T10:31:38.188Z,9
2023-05-16T10:32:44.939Z,10
2023-05-16T10:33:51.827Z,6
2023-05-16T10:35:01.810Z,6
2023-05-16T10:36:13.692Z,7
2023-05-16T10:37:56.485Z,7
2023-05-16T10:39:03.317Z,6
2023-05-16T10:40:10.141Z,7
2023-05-16T10:41:18.051Z,7
2023-05-16T10:42:24.833Z,7
2023-05-16T10:43:31.595Z,7
2023-05-16T10:44:38.415Z,8
2023-05-16T10:45:45.379Z,8
2023-05-16T10:46:53.347Z,6
2023-05-16T10:48:29.464Z,6
2023-05-16T10:49:36.203Z,9
2023-05-16T10:50:45.826Z,7
2023-05-16T10:51:52.567Z,8
2023-05-16T10:53:04.635Z,8
2023-05-16T10:54:19.533Z,9
2023-05-16T10:55:26.358Z,7
2023-05-16T10:56:33.092Z,9
2023-05-16T10:57:39.817Z,7
2023-05-16T10:58:46.693Z,8
2023-05-16T10:59:53.398Z,8
2023-05-16T11:01:07.166Z,8
2023-05-16T11:02:22.500Z,7
2023-05-16T11:03:32.564Z,8
2023-05-16T11:04:39.950Z,7
2023-05-16T11:06:03.003Z,6
2023-05-16T11:07:09.914Z,8
2023-05-16T11:08:16.721Z,7
2023-05-16T11:09:23.587Z,7
2023-05-16T11:10:30.363Z,7
2023-05-16T11:11:37.137Z,8
2023-05-16T11:12:52.079Z,7
2023-05-16T11:14:00.906Z,7
2023-05-16T11:15:07.745Z,7
2023-05-16T11:16:24.658Z,8
2023-05-16T11:17:31.478Z,6
2023-05-16T11:18:43.271Z,7
2023-05-16T11:19:53.100Z,9
2023-05-16T11:21:02.429Z,7
2023-05-16T11:22:09.293Z,7
2023-05-16T11:23:16.262Z,8
2023-05-16T11:24:22.991Z,6
2023-05-16T11:25:35.742Z,6
2023-05-16T11:26:42.510Z,6
2023-05-16T11:27:49.355Z,8
2023-05-16T11:28:58.195Z,7
2023-05-16T11:30:05.047Z,8
2023-05-16T11:31:18.124Z,7
2023-05-16T11:32:24.904Z,6
2023-05-16T11:33:31.575Z,10
2023-05-16T11:34:38.308Z,8
2023-05-16T11:36:16.113Z,8
2023-05-16T11:37:18.282Z,7
2023-05-16T11:39:19.579Z,7
2023-05-16T11:40:29.339Z,8
2023-05-16T11:41:36.181Z,9
2023-05-16T11:42:42.856Z,8
2023-05-16T11:43:49.547Z,12
2023-05-16T11:44:56.331Z,10
2023-05-16T11:46:10.789Z,12
2023-05-16T11:47:17.531Z,9
2023-05-16T11:48:35.526Z,9
2023-05-16T11:49:31.219Z,9
2023-05-16T11:50:37.883Z,6
2023-05-16T11:51:44.596Z,7
2023-05-16T11:52:54.312Z,9
2023-05-16T11:53:58.223Z,8
2023-05-16T11:55:05.004Z,7
2023-05-16T11:56:16.564Z,8
2023-05-16T11:57:23.316Z,10
2023-05-16T11:58:32.940Z,9
2023-05-16T11:59:40.627Z,11
2023-05-16T12:00:47.414Z,10
2023-05-16T12:01:54.275Z,8
2023-05-16T12:03:33.190Z,8
2023-05-16T12:04:40.360Z,7
2023-05-16T12:05:49.968Z,7
2023-05-16T12:06:56.760Z,10
2023-05-16T12:08:03.512Z,8
2023-05-16T12:09:10.185Z,8
2023-05-16T12:10:16.981Z,8
2023-05-16T12:11:23.726Z,7
2023-05-16T12:12:30.560Z,7
2023-05-16T12:13:37.236Z,11
2023-05-16T12:14:44.034Z,7
2023-05-16T12:15:51.520Z,6
2023-05-16T12:17:08.174Z,8
2023-05-16T12:18:14.937Z,8
2023-05-16T12:19:21.844Z,9
2023-05-16T12:20:28.728Z,9
2023-05-16T12:21:35.478Z,8
2023-05-16T12:22:42.260Z,9
2023-05-16T12:23:49.090Z,8
2023-05-16T12:24:58.767Z,8
2023-05-16T12:26:15.660Z,8
2023-05-16T12:27:30.159Z,7
2023-05-16T12:28:36.916Z,9
2023-05-16T12:29:43.776Z,7
2023-05-16T12:30:50.544Z,8
2023-05-16T12:31:57.476Z,7
2023-05-16T12:33:06.969Z,7
2023-05-16T12:34:11.180Z,8
2023-05-16T12:35:20.924Z,9
2023-05-16T12:36:33.684Z,11
2023-05-16T12:37:40.434Z,6
2023-05-16T12:38:47.333Z,8
2023-05-16T12:39:54.169Z,8
2023-05-16T12:41:04.039Z,12
2023-05-16T12:42:10.741Z,8
2023-05-16T12:43:17.515Z,8
2023-05-16T12:44:24.514Z,7
2023-05-16T12:45:31.905Z,7
2023-05-16T12:46:37.846Z,9
2023-05-16T12:47:47.457Z,7
2023-05-16T12:48:54.083Z,6
2023-05-16T12:50:04.063Z,8
2023-05-16T12:51:13.753Z,10
2023-05-16T12:52:20.541Z,9
2023-05-16T12:53:27.244Z,7
2023-05-16T12:54:34.047Z,9
2023-05-16T12:55:40.874Z,7
2023-05-16T12:56:47.680Z,8
2023-05-16T12:57:54.513Z,8
2023-05-16T12:59:01.331Z,6
2023-05-16T13:00:08.165Z,7
2023-05-16T13:01:15.150Z,8
2023-05-16T13:02:21.814Z,8
2023-05-16T13:03:28.542Z,10
2023-05-16T13:04:35.304Z,9
2023-05-16T13:05:59.580Z,8
2023-05-16T13:07:06.339Z,7
2023-05-16T13:08:13.124Z,8
2023-05-16T13:09:19.985Z,9
2023-05-16T13:10:26.982Z,9
2023-05-16T13:11:33.491Z,6
2023-05-16T13:12:40.381Z,7
2023-05-16T13:13:47.112Z,7
2023-05-16T13:14:54.572Z,10
2023-05-16T13:16:01.436Z,6
2023-05-16T13:17:48.104Z,6
2023-05-16T13:18:54.896Z,7
2023-05-16T13:20:01.906Z,6
2023-05-16T13:21:11.629Z,7
2023-05-16T13:22:18.354Z,6
2023-05-16T13:23:25.428Z,6
2023-05-16T13:24:32.283Z,7
2023-05-16T13:25:39.014Z,9
2023-05-16T13:26:45.818Z,7
2023-05-16T13:27:52.561Z,8
2023-05-16T13:28:59.439Z,7
2023-05-16T13:30:06.356Z,10
2023-05-16T13:31:13.387Z,8
2023-05-16T13:32:52.366Z,8
2023-05-16T13:33:59.030Z,6
2023-05-16T13:35:05.740Z,6
2023-05-16T13:36:12.655Z,5
2023-05-16T13:37:19.455Z,6
2023-05-16T13:38:28.940Z,10
2023-05-16T13:39:35.850Z,8
2023-05-16T13:40:45.049Z,6
2023-05-16T13:41:51.881Z,7
2023-05-16T13:42:58.622Z,7
2023-05-16T13:44:05.450Z,7
2023-05-16T13:45:13.502Z,7
2023-05-16T13:46:20.664Z,8
2023-05-16T13:47:27.415Z,5
2023-05-16T13:48:34.114Z,7
2023-05-16T13:49:40.970Z,7
2023-05-16T13:50:47.781Z,7
2023-05-16T13:51:54.876Z,6
2023-05-16T13:53:01.609Z,6
2023-05-16T13:54:08.500Z,8
2023-05-16T13:55:15.314Z,7
2023-05-16T13:56:22.285Z,7
2023-05-16T13:57:28.977Z,7
2023-05-16T13:58:38.714Z,7
2023-05-16T14:00:49.461Z,7
2023-05-16T14:01:56.445Z,9
2023-05-16T14:03:03.004Z,6
2023-05-16T14:04:09.714Z,6
2023-05-16T14:05:16.485Z,8
2023-05-16T14:06:23.290Z,7
2023-05-16T14:07:30.044Z,9
2023-05-16T14:08:36.904Z,6
2023-05-16T14:09:49.075Z,7
2023-05-16T14:11:07.411Z,6
2023-05-16T14:12:23.129Z,8
2023-05-16T14:13:33.227Z,9
2023-05-16T14:14:40.070Z,6
2023-05-16T14:15:46.853Z,8
2023-05-16T14:16:56.670Z,8
2023-05-16T14:18:03.598Z,6
2023-05-16T14:19:31.873Z,6
2023-05-16T14:20:38.540Z,8
2023-05-16T14:21:45.330Z,6
2023-05-16T14:22:52.211Z,14
2023-05-16T14:23:59.020Z,9
2023-05-16T14:25:05.896Z,8
2023-05-16T14:26:12.756Z,7
2023-05-16T14:27:19.599Z,8
2023-05-16T14:28:26.433Z,7
2023-05-16T14:29:37.353Z,7
2023-05-16T14:30:47.314Z,7
2023-05-16T14:31:52.279Z,7
2023-05-16T14:32:59.088Z,8
2023-05-16T14:34:05.965Z,8
2023-05-16T14:35:12.584Z,9
2023-05-16T14:36:19.455Z,7
2023-05-16T14:37:26.197Z,6
2023-05-16T14:38:33.022Z,9
2023-05-16T14:39:45.721Z,8
2023-05-16T14:40:52.670Z,8
2023-05-16T14:41:59.417Z,7
2023-05-16T14:43:06.251Z,8
2023-05-16T14:44:13.107Z,7
2023-05-16T14:45:19.903Z,7
2023-05-16T14:46:26.668Z,7
2023-05-16T14:47:33.368Z,6
2023-05-16T14:48:43.050Z,7
2023-05-16T14:49:50.057Z,7
2023-05-16T14:50:56.596Z,7
2023-05-16T14:52:03.242Z,7
2023-05-16T14:53:09.886Z,7
2023-05-16T14:54:16.671Z,9
2023-05-16T14:55:23.447Z,7
2023-05-16T14:56:30.139Z,8
2023-05-16T14:57:36.889Z,8
2023-05-16T14:58:43.751Z,7
2023-05-16T15:00:02.375Z,9
2023-05-16T15:01:09.520Z,8
2023-05-16T15:02:16.460Z,7
2023-05-16T15:03:23.049Z,9
2023-05-16T15:04:29.772Z,8
2023-05-16T15:05:36.677Z,8
2023-05-16T15:06:43.337Z,10
2023-05-16T15:07:50.077Z,9
2023-05-16T15:08:56.842Z,6
2023-05-16T15:10:03.713Z,8
2023-05-16T15:11:10.682Z,8
2023-05-16T15:12:17.448Z,7
2023-05-16T15:13:24.303Z,8
2023-05-16T15:14:31.095Z,8
2023-05-16T15:15:37.912Z,9
2023-05-16T15:16:44.941Z,9
2023-05-16T15:17:51.664Z,9
2023-05-16T15:18:58.527Z,8
2023-05-16T15:20:05.360Z,9
2023-05-16T15:21:12.450Z,8
2023-05-16T15:22:19.158Z,11
2023-05-16T15:23:25.954Z,10
2023-05-16T15:24:32.887Z,10
2023-05-16T15:25:39.686Z,11
2023-05-16T15:26:46.643Z,10
2023-05-16T15:27:53.485Z,11
2023-05-16T15:29:00.269Z,11
2023-05-16T15:30:06.981Z,12
2023-05-16T15:31:14.020Z,10
2023-05-16T15:32:20.830Z,10
2023-05-16T15:33:27.413Z,10
2023-05-16T15:34:34.205Z,11
2023-05-16T15:35:40.981Z,10
2023-05-16T15:36:47.977Z,11
2023-05-16T15:37:54.648Z,9
2023-05-16T15:39:01.414Z,10
2023-05-16T15:40:08.262Z,10
2023-05-16T15:41:26.857Z,10
2023-05-16T15:42:22.115Z,7
2023-05-16T15:43:28.810Z,7
2023-05-16T15:44:35.679Z,7
2023-05-16T15:45:42.527Z,9
2023-05-16T15:46:49.421Z,7
2023-05-16T15:47:56.200Z,8
2023-05-16T15:49:03.033Z,8
2023-05-16T15:50:09.781Z,9
2023-05-16T15:51:16.632Z,7
2023-05-16T15:52:23.712Z,7
2023-05-16T15:53:30.358Z,9
2023-05-16T15:54:37.133Z,12
2023-05-16T15:55:43.908Z,9
2023-05-16T15:56:50.793Z,9
2023-05-16T15:57:57.684Z,8
2023-05-16T15:59:04.453Z,8
2023-05-16T16:00:22.950Z,9
2023-05-16T16:01:29.812Z,8
2023-05-16T16:02:36.697Z,8
2023-05-16T16:03:43.776Z,8
2023-05-16T16:04:50.162Z,9
2023-05-16T16:05:56.867Z,9
2023-05-16T16:07:03.904Z,9
2023-05-16T16:08:10.957Z,10
2023-05-16T16:09:17.574Z,9
2023-05-16T16:10:38.928Z,10
2023-05-16T16:11:45.652Z,8
2023-05-16T16:12:53.587Z,8
2023-05-16T16:14:06.030Z,9
2023-05-16T16:15:17.699Z,10
2023-05-16T16:16:24.591Z,13
2023-05-16T16:17:31.411Z,11
2023-05-16T16:18:38.146Z,9
2023-05-16T16:19:44.821Z,10
2023-05-16T16:20:51.579Z,9
2023-05-16T16:22:03.509Z,8
2023-05-16T16:23:10.268Z,10
2023-05-16T16:24:17.146Z,7
2023-05-16T16:25:23.882Z,8
2023-05-16T16:26:38.369Z,8
2023-05-16T16:27:45.262Z,8
2023-05-16T16:28:52.085Z,7
2023-05-16T16:29:58.963Z,7
2023-05-16T16:31:05.887Z,7
2023-05-16T16:32:12.733Z,8
2023-05-16T16:33:19.692Z,7
2023-05-16T16:35:01.485Z,7
2023-05-16T16:36:08.843Z,7
2023-05-16T16:37:15.701Z,10
2023-05-16T16:38:22.451Z,8
2023-05-16T16:39:30.539Z,8
2023-05-16T16:40:42.854Z,9
2023-05-16T16:41:49.634Z,10
2023-05-16T16:42:56.313Z,8